createdAt,value
2019-02-26T00:01:23.411Z,13.80
2019-02-26T00:04:29.772Z,14.30
2019-02-26T00:07:35.124Z,14.07
2019-02-26T00:10:40.382Z,13.93
2019-02-26T00:13:45.629Z,12.80
2019-02-26T00:16:51.055Z,13.00
2019-02-26T00:19:56.373Z,13.80
2019-02-26T00:23:02.030Z,14.30
2019-02-26T00:26:10.453Z,13.57
2019-02-26T00:29:15.740Z,14.53
2019-02-26T00:32:21.026Z,13.47
2019-02-26T00:35:27.632Z,14.00
2019-02-26T00:38:35.319Z,13.40
2019-02-26T00:41:40.490Z,12.80
2019-02-26T00:44:46.057Z,12.57
2019-02-26T00:47:51.306Z,11.97
2019-02-26T00:50:57.301Z,12.73
2019-02-26T00:54:04.127Z,13.00
2019-02-26T00:57:11.591Z,13.77
2019-02-26T01:00:16.749Z,15.67
2019-02-26T01:03:23.641Z,16.40
2019-02-26T01:06:31.050Z,17.20
2019-02-26T01:09:36.220Z,17.27
2019-02-26T01:12:42.601Z,16.67
2019-02-26T01:15:48.027Z,16.20
2019-02-26T01:18:53.427Z,16.07
2019-02-26T01:21:58.809Z,16.27
2019-02-26T01:25:04.136Z,16.87
2019-02-26T01:28:09.435Z,16.57
2019-02-26T01:31:14.726Z,18.63
2019-02-26T01:34:20.448Z,19.83
2019-02-26T01:37:27.841Z,19.23
2019-02-26T01:40:33.661Z,19.10
2019-02-26T01:43:38.851Z,19.17
2019-02-26T01:46:44.130Z,18.53
2019-02-26T01:49:51.093Z,17.37
2019-02-26T01:52:58.491Z,17.03
2019-02-26T01:56:05.104Z,19.53
2019-02-26T01:59:10.501Z,18.17
2019-02-26T02:02:18.108Z,18.57
2019-02-26T02:05:23.777Z,18.77
2019-02-26T02:08:29.684Z,18.50
2019-02-26T02:11:35.886Z,16.33
2019-02-26T02:14:41.894Z,16.10
2019-02-26T02:17:47.161Z,15.77
2019-02-26T02:20:52.458Z,15.57
2019-02-26T02:23:57.676Z,16.23
2019-02-26T02:27:02.931Z,16.40
2019-02-26T02:30:14.448Z,16.47
2019-02-26T02:33:23.589Z,15.50
2019-02-26T02:36:26.459Z,15.00
2019-02-26T02:39:32.060Z,15.47
2019-02-26T02:42:38.370Z,15.17
2019-02-26T02:45:44.489Z,16.03
2019-02-26T02:48:49.831Z,15.20
2019-02-26T02:51:55.159Z,15.90
2019-02-26T02:55:00.445Z,16.40
2019-02-26T02:58:05.794Z,16.90
2019-02-26T03:01:13.697Z,16.03
2019-02-26T03:04:24.744Z,15.80
2019-02-26T03:07:27.468Z,15.50
2019-02-26T03:10:34.590Z,15.73
2019-02-26T03:13:40.412Z,15.80
2019-02-26T03:16:47.957Z,14.20
2019-02-26T03:19:55.843Z,14.33
2019-02-26T03:22:59.943Z,13.90
2019-02-26T03:26:05.233Z,11.40
2019-02-26T03:29:10.551Z,11.43
2019-02-26T03:32:15.916Z,11.47
2019-02-26T03:35:23.388Z,12.13
2019-02-26T03:38:28.909Z,12.33
2019-02-26T03:41:34.284Z,12.20
2019-02-26T03:44:39.699Z,12.90
2019-02-26T03:47:44.971Z,13.13
2019-02-26T03:50:51.351Z,13.03
2019-02-26T03:53:56.694Z,12.30
2019-02-26T03:57:02.220Z,12.70
2019-02-26T04:00:08.753Z,13.57
2019-02-26T04:03:17.287Z,14.83
2019-02-26T04:06:22.030Z,15.27
2019-02-26T04:09:27.345Z,13.60
2019-02-26T04:12:36.080Z,13.10
2019-02-26T04:15:39.574Z,12.60
2019-02-26T04:18:45.020Z,13.40
2019-02-26T04:22:26.506Z,14.13
2019-02-26T04:25:40.643Z,14.20
2019-02-26T04:29:09.335Z,14.60
2019-02-26T04:32:50.646Z,14.53
2019-02-26T04:36:44.737Z,14.50
2019-02-26T04:40:14.121Z,13.67
2019-02-26T04:43:45.696Z,13.10
2019-02-26T04:47:05.916Z,13.97
2019-02-26T04:50:10.304Z,13.90
2019-02-26T04:53:15.710Z,13.70
2019-02-26T04:56:21.071Z,13.57
2019-02-26T04:59:26.470Z,14.20
2019-02-26T05:02:34.433Z,13.90
2019-02-26T05:05:39.766Z,13.67
2019-02-26T05:08:45.104Z,13.87
2019-02-26T05:11:50.478Z,14.20
2019-02-26T05:14:55.839Z,14.80
2019-02-26T05:18:01.150Z,14.50
2019-02-26T05:21:08.314Z,15.93
2019-02-26T05:24:17.438Z,16.03
2019-02-26T05:27:22.708Z,14.17
2019-02-26T05:30:27.305Z,14.10
2019-02-26T05:33:32.871Z,15.00
2019-02-26T05:36:40.308Z,15.00
2019-02-26T05:39:46.855Z,15.07
2019-02-26T05:42:53.423Z,15.40
2019-02-26T05:46:00.702Z,15.23
2019-02-26T05:49:09.758Z,14.93
2019-02-26T05:52:13.464Z,16.03
2019-02-26T05:55:20.591Z,16.50
2019-02-26T05:58:25.723Z,15.63
2019-02-26T06:01:31.033Z,16.20
2019-02-26T06:04:38.418Z,14.87
2019-02-26T06:07:43.412Z,16.70
2019-02-26T06:10:48.817Z,16.07
2019-02-26T06:13:56.306Z,15.47
2019-02-26T06:17:02.659Z,16.80
2019-02-26T06:20:14.421Z,16.30
2019-02-26T06:23:19.715Z,15.17
2019-02-26T06:26:28.161Z,16.23
2019-02-26T06:29:32.647Z,16.20
2019-02-26T06:32:40.155Z,17.60
2019-02-26T06:35:46.066Z,16.97
2019-02-26T06:38:52.137Z,15.73
2019-02-26T06:41:58.387Z,15.80
2019-02-26T06:45:06.497Z,16.70
2019-02-26T06:48:14.640Z,16.97
2019-02-26T06:51:21.286Z,16.80
2019-02-26T06:54:26.677Z,17.10
2019-02-26T06:57:33.314Z,17.27
2019-02-26T07:00:38.594Z,17.70
2019-02-26T07:03:43.859Z,18.40
2019-02-26T07:06:49.086Z,18.53
2019-02-26T07:09:57.532Z,18.50
2019-02-26T07:13:02.226Z,18.10
2019-02-26T07:16:08.450Z,19.50
2019-02-26T07:19:16.538Z,18.53
2019-02-26T07:22:22.229Z,19.67
2019-02-26T07:25:27.587Z,19.80
2019-02-26T07:28:32.941Z,18.13
2019-02-26T07:31:38.330Z,19.03
2019-02-26T07:34:45.203Z,18.63
2019-02-26T07:37:52.361Z,18.80
2019-02-26T07:40:59.593Z,17.93
2019-02-26T07:44:08.692Z,18.37
2019-02-26T07:47:11.562Z,17.40
2019-02-26T07:50:17.444Z,19.20
2019-02-26T07:53:24.927Z,18.63
2019-02-26T07:56:32.612Z,19.90
2019-02-26T07:59:39.859Z,19.37
2019-02-26T08:02:44.175Z,18.77
2019-02-26T08:05:50.953Z,18.47
2019-02-26T08:08:56.353Z,19.97
2019-02-26T08:12:02.437Z,19.03
2019-02-26T08:15:12.614Z,19.90
2019-02-26T08:18:17.559Z,20.30
2019-02-26T08:21:24.726Z,18.77
2019-02-26T08:24:29.809Z,18.50
2019-02-26T08:27:37.909Z,18.37
2019-02-26T08:30:45.210Z,17.43
2019-02-26T08:33:51.871Z,18.77
2019-02-26T08:36:57.288Z,19.30
2019-02-26T08:40:02.498Z,18.00
2019-02-26T08:43:09.451Z,17.17
2019-02-26T08:46:17.135Z,18.23
2019-02-26T08:49:22.817Z,17.87
2019-02-26T08:52:29.390Z,17.43
2019-02-26T08:55:34.877Z,17.73
2019-02-26T08:58:41.141Z,18.93
2019-02-26T09:01:47.089Z,18.60
2019-02-26T09:04:53.529Z,18.50
2019-02-26T09:07:58.799Z,18.43
2019-02-26T09:11:06.308Z,18.63
2019-02-26T09:14:12.128Z,18.07
2019-02-26T09:17:20.877Z,20.30
2019-02-26T09:20:25.058Z,21.67
2019-02-26T09:23:31.014Z,20.80
2019-02-26T09:26:37.269Z,21.07
2019-02-26T09:29:49.603Z,20.73
2019-02-26T09:32:52.596Z,21.80
2019-02-26T09:35:58.091Z,20.27
2019-02-26T09:39:05.783Z,21.07
2019-02-26T09:42:11.533Z,20.27
2019-02-26T09:45:20.382Z,19.10
2019-02-26T09:48:24.853Z,19.80
2019-02-26T09:51:30.627Z,19.87
2019-02-26T09:54:40.269Z,21.10
2019-02-26T09:57:46.478Z,21.50
2019-02-26T10:00:53.933Z,20.60
2019-02-26T10:04:00.837Z,20.70
2019-02-26T10:07:08.874Z,20.40
2019-02-26T10:10:14.491Z,20.50
2019-02-26T10:13:21.091Z,21.77
2019-02-26T10:16:28.283Z,21.97
2019-02-26T10:19:35.558Z,20.93
2019-02-26T10:22:40.614Z,17.63
2019-02-26T10:25:47.514Z,18.20
2019-02-26T10:28:58.118Z,18.30
2019-02-26T10:31:59.947Z,17.07
2019-02-26T10:35:06.494Z,19.77
2019-02-26T10:38:12.330Z,18.63
2019-02-26T10:41:17.623Z,18.80
2019-02-26T10:44:22.848Z,19.07
2019-02-26T10:47:29.906Z,19.67
2019-02-26T10:50:37.290Z,19.63
2019-02-26T10:53:43.193Z,19.90
2019-02-26T10:56:48.539Z,21.23
2019-02-26T10:59:56.970Z,20.07
2019-02-26T11:03:00.914Z,21.37
2019-02-26T11:06:09.912Z,20.97
2019-02-26T11:09:18.326Z,20.50
2019-02-26T11:12:22.739Z,20.23
2019-02-26T11:15:31.199Z,21.33
2019-02-26T11:18:37.398Z,19.90
2019-02-26T11:21:42.580Z,21.20
2019-02-26T11:24:48.528Z,21.50
2019-02-26T11:27:54.847Z,19.73
2019-02-26T11:31:00.203Z,19.77
2019-02-26T11:34:09.210Z,19.03
2019-02-26T11:37:14.843Z,19.57
2019-02-26T11:40:22.164Z,19.93
2019-02-26T11:43:28.911Z,19.70
2019-02-26T11:46:34.435Z,20.63
2019-02-26T11:49:41.667Z,19.67
2019-02-26T11:52:46.837Z,20.40
2019-02-26T11:55:54.496Z,19.90
2019-02-26T11:58:59.033Z,18.63
2019-02-26T12:02:06.259Z,19.30
2019-02-26T12:05:11.342Z,19.83
2019-02-26T12:08:19.374Z,20.37
2019-02-26T12:11:23.613Z,18.77
2019-02-26T12:14:28.823Z,18.87
2019-02-26T12:17:35.689Z,18.70
2019-02-26T12:20:43.037Z,18.83
2019-02-26T12:23:47.913Z,18.93
2019-02-26T12:26:54.729Z,18.77
2019-02-26T12:30:00.186Z,18.97
2019-02-26T12:33:07.709Z,18.30
2019-02-26T12:36:13.611Z,19.90
2019-02-26T12:39:21.392Z,20.13
2019-02-26T12:42:25.958Z,19.60
2019-02-26T12:45:34.209Z,19.53
2019-02-26T12:48:44.216Z,16.93
2019-02-26T12:51:47.603Z,17.63
2019-02-26T12:54:54.941Z,15.10
2019-02-26T12:58:00.363Z,14.17
2019-02-26T13:01:05.681Z,12.33
2019-02-26T13:04:12.979Z,12.00
2019-02-26T13:07:18.003Z,11.73
2019-02-26T13:10:23.929Z,11.50
2019-02-26T13:13:29.216Z,12.63
2019-02-26T13:16:35.584Z,11.67
2019-02-26T13:19:40.814Z,11.37
2019-02-26T13:22:47.723Z,12.50
2019-02-26T13:25:53.048Z,11.17
2019-02-26T13:29:00.344Z,12.07
2019-02-26T13:32:08.019Z,12.40
2019-02-26T13:35:13.809Z,12.67
2019-02-26T13:38:24.215Z,13.40
2019-02-26T13:41:29.895Z,14.40
2019-02-26T13:44:33.227Z,12.00
2019-02-26T13:47:38.637Z,11.73
2019-02-26T13:50:43.908Z,12.37
2019-02-26T13:53:50.741Z,12.03
2019-02-26T13:56:56.049Z,12.00
2019-02-26T14:00:01.369Z,11.43
2019-02-26T14:03:08.162Z,11.73
2019-02-26T14:06:13.489Z,11.83
2019-02-26T14:09:18.822Z,12.37
2019-02-26T14:12:24.291Z,12.43
2019-02-26T14:15:29.990Z,12.90
2019-02-26T14:18:35.304Z,13.33
2019-02-26T14:21:40.547Z,13.57
2019-02-26T14:24:45.786Z,13.33
2019-02-26T14:27:51.085Z,14.10
2019-02-26T14:30:56.357Z,13.50
2019-02-26T14:34:01.613Z,14.03
2019-02-26T14:37:06.895Z,12.57
2019-02-26T14:40:13.080Z,12.57
2019-02-26T14:43:18.451Z,13.97
2019-02-26T14:46:23.748Z,14.13
2019-02-26T14:49:29.102Z,12.93
2019-02-26T14:52:34.343Z,13.80
2019-02-26T14:55:41.637Z,13.70
2019-02-26T14:58:46.663Z,13.47
2019-02-26T15:01:52.184Z,14.67
2019-02-26T15:04:57.523Z,13.97
2019-02-26T15:08:02.814Z,13.03
2019-02-26T15:11:08.219Z,13.17
2019-02-26T15:14:13.553Z,12.90
2019-02-26T15:17:18.897Z,13.77
2019-02-26T15:20:24.235Z,13.27
2019-02-26T15:23:29.552Z,13.83
2019-02-26T15:26:34.813Z,14.10
2019-02-26T15:29:40.112Z,13.90
2019-02-26T15:32:45.644Z,13.70
2019-02-26T15:35:50.962Z,13.00
2019-02-26T15:38:56.192Z,12.20
2019-02-26T15:42:01.534Z,11.90
2019-02-26T15:45:09.485Z,12.20
2019-02-26T15:48:14.743Z,11.43
2019-02-26T15:51:20.772Z,10.60
2019-02-26T15:54:27.304Z,11.90
2019-02-26T15:57:32.589Z,12.10
2019-02-26T16:00:38.531Z,11.30
2019-02-26T16:03:43.898Z,11.40
2019-02-26T16:06:49.232Z,11.57
2019-02-26T16:09:54.531Z,11.47
2019-02-26T16:13:04.577Z,11.97
2019-02-26T16:16:09.927Z,11.60
2019-02-26T16:19:15.208Z,12.47
2019-02-26T16:22:20.508Z,11.90
2019-02-26T16:25:26.817Z,11.10
2019-02-26T16:28:32.107Z,11.00
2019-02-26T16:31:37.374Z,12.70
2019-02-26T16:34:42.723Z,11.33
2019-02-26T16:37:48.013Z,12.00
2019-02-26T16:40:53.652Z,12.13
2019-02-26T16:44:00.501Z,11.23
2019-02-26T16:47:06.441Z,12.23
2019-02-26T16:50:13.831Z,12.67
2019-02-26T16:53:20.238Z,13.47
2019-02-26T16:56:25.539Z,12.90
2019-02-26T16:59:30.913Z,13.33
2019-02-26T17:02:36.188Z,12.80
2019-02-26T17:05:41.483Z,11.90
2019-02-26T17:08:47.325Z,12.73
2019-02-26T17:11:53.281Z,12.63
2019-02-26T17:14:58.662Z,11.90
2019-02-26T17:18:04.877Z,12.50
2019-02-26T17:21:10.226Z,12.10
2019-02-26T17:24:15.518Z,12.70
2019-02-26T17:27:20.914Z,12.30
2019-02-26T17:30:26.288Z,12.70
2019-02-26T17:33:33.076Z,12.17
2019-02-26T17:36:38.373Z,12.40
2019-02-26T17:39:43.662Z,12.23
2019-02-26T17:42:51.250Z,14.20
2019-02-26T17:45:56.048Z,13.93
2019-02-26T17:49:02.863Z,13.33
2019-02-26T17:52:08.355Z,13.33
2019-02-26T17:55:13.707Z,14.37
2019-02-26T17:58:19.158Z,14.00
2019-02-26T18:01:24.559Z,14.40
2019-02-26T18:04:29.897Z,13.50
2019-02-26T18:07:38.389Z,12.73
2019-02-26T18:10:42.294Z,13.57
2019-02-26T18:13:47.673Z,13.40
2019-02-26T18:16:52.961Z,13.50
2019-02-26T18:19:58.253Z,12.47
2019-02-26T18:23:04.766Z,12.57
2019-02-26T18:26:12.807Z,12.00
2019-02-26T18:29:18.178Z,12.30
2019-02-26T18:32:23.455Z,12.20
2019-02-26T18:35:28.735Z,11.80
2019-02-26T18:38:34.118Z,10.93
2019-02-26T18:41:39.517Z,11.83
2019-02-26T18:44:44.944Z,12.20
2019-02-26T18:47:50.359Z,11.90
2019-02-26T18:50:55.638Z,10.97
2019-02-26T18:54:00.891Z,11.70
2019-02-26T18:57:06.154Z,11.67
2019-02-26T19:00:13.932Z,11.33
2019-02-26T19:03:20.790Z,11.40
2019-02-26T19:06:26.988Z,11.50
2019-02-26T19:09:33.845Z,10.60
2019-02-26T19:12:40.689Z,11.27
2019-02-26T19:15:47.919Z,10.23
2019-02-26T19:18:52.930Z,10.80
2019-02-26T19:21:58.991Z,10.30
2019-02-26T19:25:06.777Z,10.50
2019-02-26T19:28:11.707Z,11.00
2019-02-26T19:31:17.058Z,11.83
2019-02-26T19:34:22.292Z,12.07
2019-02-26T19:37:27.597Z,12.07
2019-02-26T19:40:38.796Z,12.97
2019-02-26T19:43:42.471Z,13.90
2019-02-26T19:46:49.658Z,14.27
2019-02-26T19:49:55.899Z,12.70
2019-02-26T19:53:02.469Z,13.23
2019-02-26T19:56:08.225Z,14.20
2019-02-26T19:59:14.253Z,13.37
2019-02-26T20:02:20.787Z,11.20
2019-02-26T20:05:26.077Z,11.03
2019-02-26T20:08:31.412Z,10.40
2019-02-26T20:11:36.754Z,11.30
2019-02-26T20:14:42.056Z,9.87
2019-02-26T20:17:49.123Z,10.80
2019-02-26T20:20:54.523Z,10.60
2019-02-26T20:23:59.868Z,10.80
2019-02-26T20:27:05.266Z,10.90
2019-02-26T20:30:12.532Z,10.67
2019-02-26T20:33:19.452Z,10.70
2019-02-26T20:36:24.703Z,10.80
2019-02-26T20:39:30.113Z,11.77
2019-02-26T20:42:35.376Z,11.10
2019-02-26T20:45:40.720Z,10.97
2019-02-26T20:48:46.150Z,11.70
2019-02-26T20:51:51.732Z,13.30
2019-02-26T20:54:57.103Z,11.17
2019-02-26T20:58:02.427Z,11.80
2019-02-26T21:01:07.760Z,11.00
2019-02-26T21:04:13.062Z,11.67
2019-02-26T21:07:21.797Z,11.17
2019-02-26T21:10:26.441Z,11.37
2019-02-26T21:13:34.595Z,12.23
2019-02-26T21:16:38.812Z,12.53
2019-02-26T21:19:44.233Z,14.53
2019-02-26T21:22:54.607Z,12.60
2019-02-26T21:25:57.538Z,13.53
2019-02-26T21:29:05.555Z,13.00
2019-02-26T21:32:09.810Z,13.20
2019-02-26T21:35:15.100Z,12.23
2019-02-26T21:38:20.356Z,11.80
2019-02-26T21:41:25.627Z,12.87
2019-02-26T21:44:30.925Z,13.20
2019-02-26T21:47:36.196Z,14.60
2019-02-26T21:50:41.477Z,12.17
2019-02-26T21:53:49.192Z,12.90
2019-02-26T21:56:53.784Z,11.90
2019-02-26T21:59:59.125Z,12.70
2019-02-26T22:03:04.460Z,12.93
2019-02-26T22:06:11.496Z,13.00
2019-02-26T22:09:16.987Z,11.80
2019-02-26T22:12:24.743Z,13.00
2019-02-26T22:15:30.102Z,12.23
2019-02-26T22:18:35.386Z,10.83
2019-02-26T22:21:51.837Z,10.90
2019-02-26T22:24:55.509Z,11.17
2019-02-26T22:28:01.811Z,10.40
2019-02-26T22:31:07.051Z,10.60
2019-02-26T22:34:16.765Z,11.63
2019-02-26T22:37:21.502Z,11.80
2019-02-26T22:40:29.221Z,13.30
2019-02-26T22:43:33.776Z,12.43
2019-02-26T22:46:39.181Z,12.47
2019-02-26T22:49:45.444Z,12.70
2019-02-26T22:52:50.750Z,11.93
2019-02-26T22:55:56.014Z,12.43
2019-02-26T22:59:01.375Z,13.50
2019-02-26T23:02:09.893Z,13.60
2019-02-26T23:05:16.306Z,13.63
2019-02-26T23:08:21.702Z,13.27
2019-02-26T23:11:31.688Z,13.90
2019-02-26T23:14:35.912Z,14.10
2019-02-26T23:17:42.839Z,13.13
2019-02-26T23:20:48.232Z,13.90
2019-02-26T23:23:54.814Z,14.23
2019-02-26T23:27:01.088Z,13.50
2019-02-26T23:30:08.506Z,14.20
2019-02-26T23:33:15.772Z,14.40
2019-02-26T23:36:21.155Z,14.13
2019-02-26T23:39:28.010Z,14.70
2019-02-26T23:42:38.788Z,13.60
2019-02-26T23:45:41.635Z,14.10
2019-02-26T23:48:49.991Z,13.77
2019-02-26T23:51:55.297Z,14.70
2019-02-26T23:55:00.531Z,14.20
2019-02-26T23:58:05.821Z,14.33
